CMA CGM Musca — 2CAC8 — position and weather

sailwx.info

Track history (hours):
 
Tides and Currents Weather Stations Pressure Air Temp Water Temp Dewpoint Dewpoint Depression Visibility Wind Speed Wind Dir Waves Ship Positions

CMA CGM Musca

Last reported at 2017-Mar-25 00:18 UTC. Time now 2017-Mar-26 01:25 UTC.
Position N 24°14' E 118°36'.

Length 347 m; draft 13.7 m.

Type: Ship (hazmat cat A). MMSI: 235070914.

Date/timePositionNaut miles runAvg speedWind from/ knotsBaromVisibWave heightAir tempDewpointWater temp
2017-Mar-25 00:18N 24°14' E 118°36'1013.1
2017-Mar-24 23:34N 24°13' E 118°26'1312.5
2017-Mar-24 22:33N 24°17' E 118°13'1211.8
2017-Mar-24 21:33N 24°26' E 118°04'3 2.2
2017-Mar-24 20:06N 24°27' E 118°00'0 0.0
2017-Mar-24 19:30N 24°27' E 118°00'0 0.0
2017-Mar-24 18:23N 24°27' E 118°00'0 0.0
2017-Mar-24 17:23N 24°27' E 118°00'0 0.0
2017-Mar-24 14:27N 24°27' E 118°00'1 0.4
2017-Mar-24 12:33N 24°26' E 118°01'10 9.8
2017-Mar-24 11:33N 24°21' E 118°10'2512.3
2017-Mar-24 09:30N 23°58' E 118°21'  
2017-Mar-20 04:33N 01°14' E 103°59'1212.2
2017-Mar-20 03:33N 01°14' E 103°47'2 1.5
2017-Mar-20 02:32N 01°16' E 103°47'0 0.0
2017-Mar-20 01:25N 01°16' E 103°47'0 0.0
2017-Mar-20 00:31N 01°16' E 103°47'0 0.0
2017-Mar-19 23:25N 01°16' E 103°47'0 0.0
2017-Mar-19 22:31N 01°16' E 103°47'0 0.0
2017-Mar-19 21:10N 01°16' E 103°47'0 0.0
2017-Mar-19 20:28N 01°16' E 103°47'0 0.0
2017-Mar-19 19:33N 01°16' E 103°47'0 0.0
2017-Mar-19 18:15N 01°16' E 103°47'0 0.0
2017-Mar-19 17:32N 01°16' E 103°47'0 0.0
2017-Mar-19 16:26N 01°16' E 103°47'0 0.0
2017-Mar-19 15:19N 01°16' E 103°47'0 0.0
2017-Mar-19 14:31N 01°16' E 103°47'0 0.0
2017-Mar-19 13:28N 01°16' E 103°47'0 0.0
2017-Mar-19 12:32N 01°16' E 103°47'0 0.1
2017-Mar-19 11:33N 01°16' E 103°47'0 0.3
2017-Mar-19 10:33N 01°16' E 103°47'7 7.1
2017-Mar-19 09:33N 01°13' E 103°40'9 9.4
2017-Mar-19 08:33N 01°10' E 103°31'4914.6
2017-Mar-19 05:12N 01°36' E 102°50'2915.2
2017-Mar-19 03:16N 01°49' E 102°23'  
Track history (hours):
 
Tides and Currents Weather Stations Pressure Air Temp Water Temp Dewpoint Dewpoint Depression Visibility Wind Speed Wind Dir Waves Ship Positions

CMA CGM Musca

Last reported at 2017-Mar-25 00:18 UTC. Time now 2017-Mar-26 01:25 UTC.
Position N 24°14' E 118°36'.

Length 347 m; draft 13.7 m.

Type: Ship (hazmat cat A). MMSI: 235070914.

Date/timePositionNaut miles runAvg speedWind from/ knotsBaromVisibWave heightAir tempDewpointWater temp
2017-Mar-25 00:18N 24°14' E 118°36'1013.1
2017-Mar-24 23:34N 24°13' E 118°26'1312.5
2017-Mar-24 22:33N 24°17' E 118°13'1211.8
2017-Mar-24 21:33N 24°26' E 118°04'3 2.2
2017-Mar-24 20:06N 24°27' E 118°00'0 0.0
2017-Mar-24 19:30N 24°27' E 118°00'0 0.0
2017-Mar-24 18:23N 24°27' E 118°00'0 0.0
2017-Mar-24 17:23N 24°27' E 118°00'0 0.0
2017-Mar-24 14:27N 24°27' E 118°00'1 0.4
2017-Mar-24 12:33N 24°26' E 118°01'10 9.8
2017-Mar-24 11:33N 24°21' E 118°10'2512.3
2017-Mar-24 09:30N 23°58' E 118°21'  
2017-Mar-20 04:33N 01°14' E 103°59'1212.2
2017-Mar-20 03:33N 01°14' E 103°47'2 1.5
2017-Mar-20 02:32N 01°16' E 103°47'0 0.0
2017-Mar-20 01:25N 01°16' E 103°47'0 0.0
2017-Mar-20 00:31N 01°16' E 103°47'0 0.0
2017-Mar-19 23:25N 01°16' E 103°47'0 0.0
2017-Mar-19 22:31N 01°16' E 103°47'0 0.0
2017-Mar-19 21:10N 01°16' E 103°47'0 0.0
2017-Mar-19 20:28N 01°16' E 103°47'0 0.0
2017-Mar-19 19:33N 01°16' E 103°47'0 0.0
2017-Mar-19 18:15N 01°16' E 103°47'0 0.0
2017-Mar-19 17:32N 01°16' E 103°47'0 0.0
2017-Mar-19 16:26N 01°16' E 103°47'0 0.0
2017-Mar-19 15:19N 01°16' E 103°47'0 0.0
2017-Mar-19 14:31N 01°16' E 103°47'0 0.0
2017-Mar-19 13:28N 01°16' E 103°47'0 0.0
2017-Mar-19 12:32N 01°16' E 103°47'0 0.1
2017-Mar-19 11:33N 01°16' E 103°47'0 0.3
2017-Mar-19 10:33N 01°16' E 103°47'7 7.1
2017-Mar-19 09:33N 01°13' E 103°40'9 9.4
2017-Mar-19 08:33N 01°10' E 103°31'4914.6
2017-Mar-19 05:12N 01°36' E 102°50'2915.2
2017-Mar-19 03:16N 01°49' E 102°23'  

Dump ship's entire track history